Terminal Aerodrome Forecast
Issued by NWS

Home | Current Version | Previous Version | Graphics & Text | Print | Product List | Glossary On
Versions: 1 2 3 4 5 6 7 8 9 10 11 12 13 14 15 16 17 18 19 20 21 22 23 24 25 26 27 28 29 30 31 32 33
000
FTUS43 KABR 060821 AAB
TAFATY
TAF AMD
KATY 060821Z 0608/0706 02012KT P6SM VCSH OVC070
     FM061200 36016KT P6SM VCSH OVC050
     FM061800 35016G25KT P6SM BKN250=

USA.gov is the U.S. government's official web portal to all federal, state and local government web resources and services.